• Join FlightAware (Why Join?)
  • Login
  • US Flag 
09:56PM EDT


 

Airport Tracker/Info


-or-


 

Live Flight TrackerFlight Track Log ✈ FIN666 ✈ 01-Dec-2013 ✈ EKCH / CPH - EFHK / HEL

Flight Track Log - Related Links

Times and Time Zones

All times are in EST time to prevent confusion due to time zone crossing. See the FIN666 flight status page for this flight to view local times or setup timezone preferences in your user account.

Time Position Orientation Groundspeed Altitude Reporting Facility
EST Latitude Longitude Course Direction KTS MPH feet Rate Location/Type
07:29AM 55.8792 13.1969 49° Northeast  Level Estimated
07:30AM 55.9442 13.3332 50° Northeast  Level Estimated
07:31AM 56.0090 13.4701 50° Northeast  Level Estimated
07:32AM 56.0736 13.6073 50° Northeast  Level Estimated
07:33AM 56.1381 13.7451 50° Northeast  Level Estimated
07:34AM 56.2025 13.8833 50° Northeast  Level Estimated
07:35AM 56.2667 14.0219 50° Northeast  Level Estimated
07:36AM 56.3307 14.1611 50° Northeast  Level Estimated
07:37AM 56.3946 14.3007 50° Northeast  Level Estimated
07:38AM 56.4583 14.4408 50° Northeast  Level Estimated
07:39AM 56.5219 14.5813 51° Northeast  Level Estimated
07:40AM 56.5853 14.7223 51° Northeast  Level Estimated
07:41AM 56.6485 14.8638 51° Northeast  Level Estimated
07:42AM 56.7167 15.0173 51° Northeast  Level Estimated
07:43AM 56.7847 15.1713 51° Northeast  Level Estimated
07:44AM 56.8525 15.3259 51° Northeast  Level Estimated
07:45AM 56.9201 15.4811 51° Northeast  Level Estimated
07:46AM 56.9875 15.6368 51° Northeast  Level Estimated
07:47AM 57.0548 15.7931 52° Northeast  Level Estimated
07:48AM 57.1218 15.9500 52° Northeast  Level Estimated
07:49AM 57.1886 16.1074 52° Northeast  Level Estimated
07:50AM 57.2553 16.2654 52° Northeast  Level Estimated
07:51AM 57.3217 16.4240 52° Northeast  Level Estimated
07:52AM 57.3889 16.5853 52° Northeast  Level Estimated
07:53AM 57.4558 16.7472 52° Northeast  Level Estimated
07:54AM 57.5225 16.9097 53° Northeast  Level Estimated
07:55AM 57.5891 17.0728 53° Northeast  Level Estimated
07:56AM 57.6554 17.2365 53° Northeast  Level Estimated
07:57AM 57.7215 17.4008 53° Northeast  Level Estimated
07:58AM 57.7874 17.5657 53° Northeast  Level Estimated
07:59AM 57.8530 17.7312 53° Northeast  Level Estimated
08:00AM 57.9185 17.8973 53° Northeast  Level Estimated
08:01AM 57.9837 18.0640 54° Northeast  Level Estimated
08:02AM 58.0488 18.2313 54° Northeast  Level Estimated
08:03AM 58.1136 18.3993 54° Northeast  Level Estimated
08:04AM 58.1781 18.5678 54° Northeast  Level Estimated
08:05AM 58.2425 18.7369 54° Northeast  Level Estimated
08:06AM 58.3066 18.9067 54° Northeast  Level Estimated
08:07AM 58.3705 19.0771 54° Northeast  Level Estimated
08:08AM 58.4342 19.2481 55° Northeast  Level Estimated
08:09AM 58.4977 19.4197 55° Northeast  Level Estimated
08:10AM 58.5609 19.5919 55° Northeast  Level Estimated
08:11AM 58.6239 19.7648 55° Northeast  Level Estimated
08:12AM 58.6866 19.9383 55° Northeast  Level Estimated
08:13AM 58.7492 20.1124 55° Northeast  Level Estimated
08:14AM 58.8115 20.2871 55° Northeast  Level Estimated
08:15AM 58.8735 20.4625 56° Northeast  Level Estimated
08:16AM 58.9353 20.6385 56° Northeast  Level Estimated
08:17AM 58.9969 20.8151 56° Northeast  Level Estimated
08:18AM 59.0582 20.9923 56° Northeast  Level Estimated
08:19AM 59.1193 21.1702 56° Northeast  Level Estimated
08:20AM 59.1801 21.3487 56° Northeast  Level Estimated
08:21AM 59.2407 21.5279 56° Northeast  Level Estimated
08:22AM 59.3003 21.7052 57° Northeast  Level Estimated
08:23AM 59.3596 21.8832 57° Northeast  Level Estimated
08:24AM 59.4186 22.0618 57° Northeast  Level Estimated
08:25AM 59.4774 22.2410 57° Northeast  Level Estimated
08:26AM 59.5360 22.4209 57° Northeast  Level Estimated
08:27AM 59.5943 22.6013 57° Northeast  Level Estimated
08:28AM 59.6524 22.7824 58° Northeast  Level Estimated
08:29AM 59.7102 22.9641 58° Northeast  Level Estimated
08:30AM 59.7678 23.1465 58° Northeast  Level Estimated
08:31AM 59.8251 23.3295 58° Northeast  Level Estimated
08:32AM 59.8821 23.5131 58° Northeast  Level Estimated
08:33AM 59.9389 23.6973 58° Northeast  Level Estimated
08:34AM 59.9955 23.8822 58° Northeast  Level Estimated
08:35AM 60.0518 24.0677 59° Northeast  Level Estimated
08:36AM 60.1078 24.2538 59° Northeast  Level Estimated
08:37AM 60.1635 24.4406 59° Northeast  Level Estimated
08:38AM 60.2190 24.6280 59° Northeast  Level Estimated
08:39AM 60.2743 24.8160 59° Northeast  Level Estimated
08:40AM 60.3172 24.9633 59° Northeast  Level Estimated
08:41AM 60.3172 24.9633 37° Northeast  Level Estimated
08:42AM 60.3172 24.9633 37° Northeast  Level Estimated
08:43AM 60.3172 24.9633 37° Northeast  Level Estimated
08:44AM 60.3172 24.9633 37° Northeast  Level Estimated
08:45AM 60.3172 24.9633 37° Northeast  Level Estimated
08:46AM 60.3172 24.9633 37° Northeast  Level Estimated
08:47AM 60.3172 24.9633 37° Northeast  Level Estimated
08:48AM 60.3172 24.9633 37° Northeast  Level Estimated
08:49AM 60.3172 24.9633 37° Northeast  Level Estimated